createdAt,value
2023-03-18T00:00:12.365Z,10.55
2023-03-18T00:03:00.798Z,10.38
2023-03-18T00:05:31.242Z,10.48
2023-03-18T00:07:59.565Z,10.48
2023-03-18T00:10:28.303Z,9.55
2023-03-18T00:12:56.566Z,11.93
2023-03-18T00:15:25.387Z,13.88
2023-03-18T00:17:54.735Z,13.20
2023-03-18T00:20:38.644Z,12.02
2023-03-18T00:23:08.781Z,11.13
2023-03-18T00:25:38.001Z,11.25
2023-03-18T00:28:07.230Z,12.20
2023-03-18T00:30:39.054Z,10.60
2023-03-18T00:33:07.550Z,10.65
2023-03-18T00:35:36.625Z,11.70
2023-03-18T00:38:07.689Z,13.35
2023-03-18T00:40:53.837Z,12.77
2023-03-18T00:43:29.601Z,11.63
2023-03-18T00:45:58.455Z,13.15
2023-03-18T00:48:27.005Z,10.18
2023-03-18T00:50:56.167Z,14.27
2023-03-18T00:53:26.320Z,11.35
2023-03-18T00:55:55.534Z,12.25
2023-03-18T00:58:24.778Z,11.90
2023-03-18T01:00:53.851Z,11.60
2023-03-18T01:03:26.056Z,13.20
2023-03-18T01:05:54.573Z,11.55
2023-03-18T01:08:23.177Z,12.90
2023-03-18T01:10:54.309Z,10.35
2023-03-18T01:13:24.126Z,12.07
2023-03-18T01:15:52.867Z,11.52
2023-03-18T01:18:21.236Z,12.80
2023-03-18T01:20:50.417Z,11.00
2023-03-18T01:23:21.477Z,10.30
2023-03-18T01:25:51.257Z,14.02
2023-03-18T01:28:22.951Z,11.50
2023-03-18T01:30:51.852Z,12.10
2023-03-18T01:33:22.426Z,11.27
2023-03-18T01:35:56.219Z,15.25
2023-03-18T01:38:31.534Z,10.45
2023-03-18T01:41:08.999Z,12.15
2023-03-18T01:43:41.022Z,13.63
2023-03-18T01:46:38.778Z,10.65
2023-03-18T01:49:29.112Z,12.95
2023-03-18T01:52:18.334Z,10.63
2023-03-18T01:55:21.312Z,10.50
2023-03-18T01:57:50.207Z,13.57
2023-03-18T02:00:20.157Z,11.63
2023-03-18T02:02:50.023Z,11.45
2023-03-18T02:05:22.283Z,10.25
2023-03-18T02:07:51.851Z,9.50
2023-03-18T02:10:31.513Z,11.60
2023-03-18T02:13:07.828Z,11.82
2023-03-18T02:16:01.745Z,9.20
2023-03-18T02:18:42.348Z,10.07
2023-03-18T02:21:44.063Z,9.85
2023-03-18T02:24:47.678Z,11.45
2023-03-18T02:27:30.779Z,11.30
2023-03-18T02:30:11.544Z,11.60
2023-03-18T02:32:40.934Z,11.63
2023-03-18T02:35:11.187Z,9.45
2023-03-18T02:37:40.995Z,11.05
2023-03-18T02:40:31.098Z,13.95
2023-03-18T02:43:28.629Z,20.92
2023-03-18T02:46:41.073Z,12.77
2023-03-18T02:49:10.804Z,10.68
2023-03-18T02:51:39.821Z,11.13
2023-03-18T02:54:16.120Z,11.70
2023-03-18T02:56:44.848Z,11.57
2023-03-18T02:59:13.394Z,9.90
2023-03-18T03:01:43.296Z,9.20
2023-03-18T03:04:12.489Z,12.07
2023-03-18T03:06:41.513Z,12.70
2023-03-18T03:09:11.231Z,12.55
2023-03-18T03:11:39.877Z,10.73
2023-03-18T03:14:15.782Z,10.30
2023-03-18T03:16:47.511Z,11.30
2023-03-18T03:19:17.990Z,11.35
2023-03-18T03:21:46.530Z,10.52
2023-03-18T03:24:16.539Z,9.05
2023-03-18T03:26:45.086Z,11.35
2023-03-18T03:29:13.469Z,9.63
2023-03-18T03:31:43.182Z,8.95
2023-03-18T03:34:12.331Z,13.00
2023-03-18T03:36:40.973Z,9.65
2023-03-18T03:39:09.313Z,10.23
2023-03-18T03:41:38.066Z,9.68
2023-03-18T03:44:06.427Z,11.77
2023-03-18T03:46:35.049Z,8.02
2023-03-18T03:49:03.986Z,11.02
2023-03-18T03:51:32.657Z,9.80
2023-03-18T03:54:01.109Z,8.95
2023-03-18T03:56:31.867Z,8.63
2023-03-18T03:59:00.544Z,10.48
2023-03-18T04:01:47.060Z,10.02
2023-03-18T04:04:15.704Z,9.00
2023-03-18T04:06:44.956Z,10.75
2023-03-18T04:09:13.538Z,9.90
2023-03-18T04:11:43.182Z,10.40
2023-03-18T04:14:11.486Z,9.50
2023-03-18T04:16:40.777Z,11.43
2023-03-18T04:19:11.185Z,9.32
2023-03-18T04:21:39.794Z,9.93
2023-03-18T04:24:08.661Z,8.35
2023-03-18T04:26:37.245Z,11.05
2023-03-18T04:29:06.984Z,11.88
2023-03-18T04:31:35.891Z,9.60
2023-03-18T04:34:04.566Z,10.55
2023-03-18T04:36:33.464Z,10.75
2023-03-18T04:39:02.937Z,7.50
2023-03-18T04:41:31.546Z,8.82
2023-03-18T04:44:03.954Z,9.50
2023-03-18T04:46:41.648Z,13.65
2023-03-18T04:49:10.748Z,9.30
2023-03-18T04:51:40.033Z,8.63
2023-03-18T04:54:16.902Z,12.70
2023-03-18T04:56:47.153Z,8.95
2023-03-18T04:59:15.783Z,7.90
2023-03-18T05:01:44.730Z,9.68
2023-03-18T05:04:14.035Z,7.43
2023-03-18T05:06:48.736Z,9.98
2023-03-18T05:09:19.044Z,9.85
2023-03-18T05:11:47.894Z,8.18
2023-03-18T05:14:29.247Z,9.95
2023-03-18T05:16:58.843Z,8.85
2023-03-18T05:19:28.990Z,10.07
2023-03-18T05:22:09.237Z,10.90
2023-03-18T05:24:38.733Z,8.60
2023-03-18T05:27:08.029Z,10.43
2023-03-18T05:29:42.203Z,8.68
2023-03-18T05:32:33.985Z,11.55
2023-03-18T05:35:06.402Z,10.98
2023-03-18T05:37:44.627Z,8.45
2023-03-18T05:40:14.906Z,8.48
2023-03-18T05:42:56.113Z,9.60
2023-03-18T05:45:36.822Z,9.38
2023-03-18T05:48:09.253Z,8.07
2023-03-18T05:50:49.744Z,6.70
2023-03-18T05:53:22.341Z,9.17
2023-03-18T05:55:56.677Z,8.05
2023-03-18T05:58:31.351Z,7.88
2023-03-18T06:01:15.031Z,6.90
2023-03-18T06:03:43.789Z,11.38
2023-03-18T06:06:12.727Z,7.38
2023-03-18T06:08:41.927Z,9.77
2023-03-18T06:11:11.542Z,8.15
2023-03-18T06:13:40.405Z,9.50
2023-03-18T06:16:09.020Z,8.35
2023-03-18T06:18:39.167Z,7.85
2023-03-18T06:21:09.973Z,9.00
2023-03-18T06:23:39.733Z,12.32
2023-03-18T06:26:08.949Z,6.97
2023-03-18T06:28:46.389Z,7.53
2023-03-18T06:31:17.277Z,7.57
2023-03-18T06:33:46.665Z,8.60
2023-03-18T06:36:17.984Z,8.23
2023-03-18T06:38:50.092Z,8.55
2023-03-18T06:41:19.940Z,7.00
2023-03-18T06:44:13.563Z,10.48
2023-03-18T06:46:43.963Z,8.25
2023-03-18T06:49:15.995Z,8.43
2023-03-18T06:51:51.571Z,9.40
2023-03-18T06:54:21.337Z,6.55
2023-03-18T06:56:50.573Z,10.18
2023-03-18T06:59:23.377Z,7.20
2023-03-18T07:01:52.819Z,8.05
2023-03-18T07:04:24.244Z,9.10
2023-03-18T07:06:54.613Z,13.82
2023-03-18T07:09:25.013Z,6.90
2023-03-18T07:11:56.923Z,10.15
2023-03-18T07:14:28.719Z,8.43
2023-03-18T07:16:57.724Z,8.98
2023-03-18T07:19:26.493Z,7.22
2023-03-18T07:21:55.857Z,7.45
2023-03-18T07:24:24.659Z,6.47
2023-03-18T07:26:53.746Z,7.43
2023-03-18T07:29:22.622Z,9.77
2023-03-18T07:31:51.429Z,9.82
2023-03-18T07:34:21.615Z,10.35
2023-03-18T07:36:49.996Z,8.90
2023-03-18T07:39:18.725Z,8.48
2023-03-18T07:41:47.193Z,8.57
2023-03-18T07:44:22.976Z,8.07
2023-03-18T07:46:51.704Z,8.05
2023-03-18T07:49:20.809Z,11.70
2023-03-18T07:51:49.149Z,9.40
2023-03-18T07:54:18.211Z,9.27
2023-03-18T07:56:46.851Z,8.68
2023-03-18T07:59:18.519Z,9.10
2023-03-18T08:01:47.710Z,12.82
2023-03-18T08:04:16.681Z,10.88
2023-03-18T08:06:45.192Z,11.80
2023-03-18T08:09:14.115Z,17.73
2023-03-18T08:11:43.482Z,9.48
2023-03-18T08:14:12.458Z,11.85
2023-03-18T08:16:40.969Z,9.43
2023-03-18T08:19:09.638Z,11.63
2023-03-18T08:21:38.245Z,10.95
2023-03-18T08:24:09.753Z,11.80
2023-03-18T08:26:38.129Z,14.02
2023-03-18T08:29:07.051Z,12.82
2023-03-18T08:31:35.475Z,9.60
2023-03-18T08:34:04.131Z,10.02
2023-03-18T08:36:32.420Z,9.45
2023-03-18T08:39:01.060Z,13.55
2023-03-18T08:41:29.337Z,12.30
2023-03-18T08:43:59.372Z,9.00
2023-03-18T08:46:27.666Z,12.65
2023-03-18T08:48:57.088Z,10.13
2023-03-18T08:51:25.800Z,13.18
2023-03-18T08:53:54.872Z,16.95
2023-03-18T08:56:23.263Z,10.77
2023-03-18T08:58:52.029Z,13.80
2023-03-18T09:01:22.529Z,12.38
2023-03-18T09:03:52.033Z,11.35
2023-03-18T09:06:21.452Z,13.68
2023-03-18T09:08:50.492Z,16.90
2023-03-18T09:11:18.881Z,14.32
2023-03-18T09:13:47.664Z,10.05
2023-03-18T09:16:16.220Z,16.17
2023-03-18T09:18:47.082Z,15.55
2023-03-18T09:21:17.403Z,10.32
2023-03-18T09:23:46.172Z,15.68
2023-03-18T09:26:14.971Z,11.90
2023-03-18T09:28:43.612Z,12.13
2023-03-18T09:31:13.400Z,13.05
2023-03-18T09:33:43.499Z,9.75
2023-03-18T09:36:11.894Z,11.25
2023-03-18T09:38:41.608Z,12.13
2023-03-18T09:42:00.328Z,14.60
2023-03-18T09:44:36.308Z,15.38
2023-03-18T09:47:46.515Z,18.30
2023-03-18T09:50:38.361Z,21.40
2023-03-18T09:53:46.066Z,25.50
2023-03-18T09:56:24.808Z,23.13
2023-03-18T09:59:17.549Z,26.05
2023-03-18T10:01:48.726Z,22.17
2023-03-18T10:04:39.030Z,35.47
2023-03-18T10:07:17.956Z,29.60
2023-03-18T10:09:50.758Z,30.40
2023-03-18T10:15:18.570Z,25.73
2023-03-18T10:18:19.440Z,25.23
2023-03-18T10:21:19.960Z,23.83
2023-03-18T10:24:53.558Z,22.73
2023-03-18T10:27:31.739Z,26.40
2023-03-18T10:30:30.440Z,32.63
2023-03-18T10:33:36.710Z,21.27
2023-03-18T10:36:48.630Z,21.73
2023-03-18T10:39:19.672Z,21.63
2023-03-18T10:41:50.318Z,23.38
2023-03-18T10:44:19.795Z,21.13
2023-03-18T10:46:48.484Z,26.33
2023-03-18T10:49:24.074Z,21.85
2023-03-18T10:52:15.983Z,21.27
2023-03-18T10:54:52.764Z,24.30
2023-03-18T10:57:22.147Z,25.17
2023-03-18T10:59:52.288Z,24.38
2023-03-18T11:02:34.822Z,22.58
2023-03-18T11:05:24.058Z,25.20
2023-03-18T11:08:01.811Z,23.20
2023-03-18T11:10:40.604Z,26.10
2023-03-18T11:13:20.726Z,26.23
2023-03-18T11:15:53.315Z,22.73
2023-03-18T11:18:24.796Z,24.80
2023-03-18T11:21:03.736Z,23.35
2023-03-18T11:24:08.983Z,28.80
2023-03-18T11:26:56.168Z,24.00
2023-03-18T11:29:33.392Z,25.13
2023-03-18T11:32:02.203Z,24.48
2023-03-18T11:34:33.503Z,25.17
2023-03-18T11:37:06.673Z,24.90
2023-03-18T11:39:37.744Z,24.70
2023-03-18T11:42:22.167Z,22.70
2023-03-18T11:44:54.745Z,26.90
2023-03-18T11:47:28.233Z,24.73
2023-03-18T11:49:57.644Z,30.02
2023-03-18T11:53:00.989Z,26.33
2023-03-18T11:55:38.728Z,26.92
2023-03-18T11:58:46.910Z,27.15
2023-03-18T12:01:27.279Z,26.15
2023-03-18T12:04:25.827Z,26.52
2023-03-18T12:07:20.779Z,29.98
2023-03-18T12:10:26.444Z,28.17
2023-03-18T12:13:13.922Z,27.48
2023-03-18T12:16:11.139Z,25.83
2023-03-18T12:18:45.518Z,27.33
2023-03-18T12:21:35.179Z,26.50
2023-03-18T12:24:28.412Z,30.52
2023-03-18T12:27:54.282Z,27.52
2023-03-18T12:30:55.923Z,27.50
2023-03-18T12:33:59.483Z,25.98
2023-03-18T12:36:37.305Z,25.85
2023-03-18T12:39:36.842Z,29.50
2023-03-18T12:42:14.735Z,30.05
2023-03-18T12:45:02.312Z,36.65
2023-03-18T12:47:41.663Z,27.38
2023-03-18T12:50:25.681Z,24.85
2023-03-18T12:53:01.103Z,30.65
2023-03-18T12:55:35.016Z,28.80
2023-03-18T12:58:18.784Z,25.60
2023-03-18T13:03:41.805Z,27.95
2023-03-18T13:06:31.978Z,28.02
2023-03-18T13:09:27.061Z,25.90
2023-03-18T13:12:14.739Z,26.88
2023-03-18T13:15:18.238Z,25.83
2023-03-18T13:17:46.902Z,32.72
2023-03-18T13:20:24.534Z,30.98
2023-03-18T13:23:16.147Z,29.67
2023-03-18T13:26:11.989Z,30.30
2023-03-18T13:29:08.181Z,28.52
2023-03-18T13:32:17.430Z,31.17
2023-03-18T13:35:23.052Z,31.15
2023-03-18T13:38:25.638Z,31.38
2023-03-18T13:41:40.475Z,28.42
2023-03-18T13:44:23.629Z,28.52
2023-03-18T13:47:20.465Z,27.13
2023-03-18T13:49:49.562Z,27.30
2023-03-18T13:52:36.372Z,30.05
2023-03-18T13:55:39.922Z,31.02
2023-03-18T13:58:36.736Z,27.45
2023-03-18T14:01:24.358Z,27.88
2023-03-18T14:04:15.703Z,31.50
2023-03-18T14:06:53.928Z,35.47
2023-03-18T14:09:31.727Z,34.58
2023-03-18T14:12:19.153Z,30.10
2023-03-18T14:14:56.965Z,31.20
2023-03-18T14:17:29.060Z,27.77
2023-03-18T14:19:57.494Z,31.40
2023-03-18T14:22:35.788Z,31.63
2023-03-18T14:25:22.766Z,30.25
2023-03-18T14:27:58.832Z,29.08
2023-03-18T14:30:30.346Z,32.13
2023-03-18T14:33:06.140Z,33.80
2023-03-18T14:36:25.547Z,36.55
2023-03-18T14:39:03.736Z,33.55
2023-03-18T14:41:32.862Z,31.00
2023-03-18T14:44:24.471Z,27.63
2023-03-18T14:46:58.549Z,34.63
2023-03-18T14:49:54.896Z,26.83
2023-03-18T14:52:39.068Z,30.83
2023-03-18T14:55:31.317Z,30.58
2023-03-18T14:57:59.986Z,37.30
2023-03-18T15:00:31.244Z,33.63
2023-03-18T15:03:09.800Z,33.20
2023-03-18T15:05:41.121Z,31.02
2023-03-18T15:08:46.304Z,30.70
2023-03-18T15:11:16.743Z,31.77
2023-03-18T15:13:45.243Z,33.25
2023-03-18T15:16:18.990Z,34.40
2023-03-18T15:18:53.068Z,34.80
2023-03-18T15:21:30.807Z,39.15
2023-03-18T15:24:03.809Z,33.95
2023-03-18T15:26:40.587Z,31.92
2023-03-18T15:29:38.759Z,33.20
2023-03-18T15:32:32.297Z,33.35
2023-03-18T15:35:28.830Z,30.58
2023-03-18T15:38:28.241Z,28.05
2023-03-18T15:41:11.726Z,26.02
2023-03-18T15:43:45.255Z,31.52
2023-03-18T15:46:32.632Z,36.95
2023-03-18T15:49:03.354Z,30.45
2023-03-18T15:51:45.148Z,33.65
2023-03-18T15:54:28.773Z,28.05
2023-03-18T15:59:31.352Z,33.33
2023-03-18T16:01:59.912Z,31.45
2023-03-18T16:04:33.130Z,32.50
2023-03-18T16:07:01.370Z,24.98
2023-03-18T16:09:30.370Z,26.90
2023-03-18T16:12:10.541Z,29.25
2023-03-18T16:14:42.663Z,28.40
2023-03-18T16:17:15.951Z,24.00
2023-03-18T16:19:45.852Z,27.45
2023-03-18T16:22:14.564Z,31.08
2023-03-18T16:24:44.152Z,26.98
2023-03-18T16:27:39.488Z,30.42
2023-03-18T16:30:26.216Z,26.73
2023-03-18T16:32:54.775Z,27.65
2023-03-18T16:35:31.034Z,41.63
2023-03-18T16:38:00.617Z,33.33
2023-03-18T16:40:31.524Z,31.00
2023-03-18T16:42:59.782Z,31.48
2023-03-18T16:45:32.459Z,27.48
2023-03-18T16:48:07.000Z,29.60
2023-03-18T16:50:38.952Z,26.63
2023-03-18T16:53:24.706Z,26.65
2023-03-18T16:55:56.296Z,26.52
2023-03-18T16:58:35.549Z,22.30
2023-03-18T17:01:07.522Z,26.77
2023-03-18T17:03:36.272Z,25.30
2023-03-18T17:06:06.959Z,25.17
2023-03-18T17:08:36.745Z,20.05
2023-03-18T17:11:05.642Z,21.83
2023-03-18T17:13:34.972Z,21.23
2023-03-18T17:16:04.569Z,18.45
2023-03-18T17:18:33.393Z,22.45
2023-03-18T17:21:03.942Z,17.27
2023-03-18T17:23:32.759Z,16.60
2023-03-18T17:26:17.063Z,18.25
2023-03-18T17:28:46.461Z,19.90
2023-03-18T17:31:15.344Z,18.83
2023-03-18T17:33:43.750Z,18.58
2023-03-18T17:36:12.649Z,14.88
2023-03-18T17:38:41.168Z,15.38
2023-03-18T17:41:19.519Z,16.88
2023-03-18T17:43:47.871Z,16.67
2023-03-18T17:46:16.598Z,20.55
2023-03-18T17:48:45.688Z,17.63
2023-03-18T17:51:20.087Z,15.75
2023-03-18T17:53:50.314Z,17.73
2023-03-18T17:56:19.557Z,17.65
2023-03-18T17:58:50.537Z,15.82
2023-03-18T18:01:27.473Z,16.88
2023-03-18T18:03:56.529Z,15.57
2023-03-18T18:06:29.762Z,20.65
2023-03-18T18:09:02.644Z,14.43
2023-03-18T18:11:44.286Z,17.77
2023-03-18T18:14:26.211Z,17.63
2023-03-18T18:16:59.776Z,18.70
2023-03-18T18:21:58.945Z,17.25
2023-03-18T18:24:30.925Z,17.08
2023-03-18T18:26:59.736Z,19.48
2023-03-18T18:29:29.730Z,15.82
2023-03-18T18:31:58.547Z,16.02
2023-03-18T18:34:26.905Z,17.85
2023-03-18T18:36:55.766Z,18.65
2023-03-18T18:39:24.092Z,15.60
2023-03-18T18:41:53.100Z,18.80
2023-03-18T18:44:21.949Z,16.85
2023-03-18T18:46:50.683Z,19.38
2023-03-18T18:49:24.411Z,17.20
2023-03-18T18:51:55.003Z,14.95
2023-03-18T18:54:26.655Z,20.52
2023-03-18T18:56:56.228Z,16.27
2023-03-18T18:59:31.918Z,15.57
2023-03-18T19:02:03.655Z,15.52
2023-03-18T19:04:32.113Z,17.27
2023-03-18T19:07:01.694Z,15.98
2023-03-18T19:09:30.218Z,15.77
2023-03-18T19:11:58.859Z,17.15
2023-03-18T19:14:28.679Z,15.57
2023-03-18T19:16:59.198Z,14.55
2023-03-18T19:19:34.585Z,15.25
2023-03-18T19:22:04.590Z,15.07
2023-03-18T19:24:36.904Z,14.65
2023-03-18T19:27:20.169Z,13.60
2023-03-18T19:29:48.632Z,12.32
2023-03-18T19:32:19.281Z,14.70
2023-03-18T19:34:48.781Z,10.75
2023-03-18T19:37:20.651Z,14.15
2023-03-18T19:39:49.540Z,15.07
2023-03-18T19:42:18.879Z,13.00
2023-03-18T19:44:47.814Z,12.23
2023-03-18T19:47:28.677Z,13.57
2023-03-18T19:49:57.085Z,13.88
2023-03-18T19:52:27.678Z,16.17
2023-03-18T19:54:56.341Z,14.63
2023-03-18T19:57:28.316Z,17.17
2023-03-18T19:59:58.137Z,13.57
2023-03-18T20:02:31.934Z,16.38
2023-03-18T20:05:03.051Z,13.90
2023-03-18T20:07:33.119Z,14.15
2023-03-18T20:10:01.458Z,16.50
2023-03-18T20:12:42.622Z,13.55
2023-03-18T20:15:20.528Z,21.80
2023-03-18T20:17:50.689Z,13.57
2023-03-18T20:20:32.739Z,11.77
2023-03-18T20:23:12.450Z,11.70
2023-03-18T20:25:43.795Z,11.98
2023-03-18T20:28:18.117Z,12.73
2023-03-18T20:30:47.400Z,13.25
2023-03-18T20:33:16.107Z,13.32
2023-03-18T20:35:46.958Z,13.48
2023-03-18T20:38:26.724Z,15.57
2023-03-18T20:40:55.442Z,10.48
2023-03-18T20:43:28.276Z,16.25
2023-03-18T20:45:58.584Z,13.02
2023-03-18T20:48:28.155Z,12.05
2023-03-18T20:50:57.598Z,10.40
2023-03-18T20:53:28.724Z,11.43
2023-03-18T20:55:57.477Z,9.60
2023-03-18T20:58:27.772Z,14.30
2023-03-18T21:00:56.205Z,10.20
2023-03-18T21:03:29.869Z,9.23
2023-03-18T21:06:00.438Z,14.23
2023-03-18T21:08:29.289Z,11.18
2023-03-18T21:11:01.406Z,10.40
2023-03-18T21:13:33.022Z,12.93
2023-03-18T21:16:02.080Z,11.00
2023-03-18T21:18:30.766Z,8.32
2023-03-18T21:20:59.103Z,9.90
2023-03-18T21:23:29.884Z,9.73
2023-03-18T21:25:58.498Z,9.48
2023-03-18T21:28:30.230Z,9.45
2023-03-18T21:30:58.825Z,9.30
2023-03-18T21:33:34.825Z,10.63
2023-03-18T21:36:03.327Z,7.70
2023-03-18T21:38:32.673Z,10.60
2023-03-18T21:41:01.826Z,9.75
2023-03-18T21:43:38.528Z,9.95
2023-03-18T21:46:12.706Z,10.50
2023-03-18T21:48:41.518Z,8.35
2023-03-18T21:51:38.435Z,10.18
2023-03-18T21:54:20.658Z,7.95
2023-03-18T21:56:48.957Z,7.65
2023-03-18T21:59:17.766Z,10.75
2023-03-18T22:01:46.122Z,10.20
2023-03-18T22:04:14.800Z,7.90
2023-03-18T22:06:43.213Z,13.15
2023-03-18T22:09:12.016Z,8.77
2023-03-18T22:11:40.339Z,9.70
2023-03-18T22:14:12.783Z,9.98
2023-03-18T22:16:41.509Z,9.13
2023-03-18T22:19:10.272Z,11.90
2023-03-18T22:21:38.530Z,11.05
2023-03-18T22:24:11.554Z,13.38
2023-03-18T22:26:40.445Z,10.43
2023-03-18T22:29:09.139Z,11.85
2023-03-18T22:31:37.690Z,13.70
2023-03-18T22:34:22.749Z,11.20
2023-03-18T22:36:50.989Z,8.68
2023-03-18T22:39:19.807Z,11.40
2023-03-18T22:41:48.137Z,11.52
2023-03-18T22:44:22.368Z,9.65
2023-03-18T22:46:50.904Z,13.30
2023-03-18T22:49:19.903Z,10.32
2023-03-18T22:51:48.101Z,9.48
2023-03-18T22:54:18.546Z,9.32
2023-03-18T22:56:46.822Z,7.65
2023-03-18T22:59:15.538Z,11.85
2023-03-18T23:01:43.820Z,8.07
2023-03-18T23:04:12.825Z,11.13
2023-03-18T23:06:41.847Z,8.95
2023-03-18T23:09:10.636Z,11.05
2023-03-18T23:11:39.244Z,9.43
2023-03-18T23:14:10.705Z,7.47
2023-03-18T23:16:39.060Z,8.68
2023-03-18T23:19:07.956Z,7.88
2023-03-18T23:21:36.321Z,10.20
2023-03-18T23:24:05.388Z,12.93
2023-03-18T23:26:33.794Z,8.32
2023-03-18T23:29:03.104Z,8.85
2023-03-18T23:31:31.551Z,9.75
2023-03-18T23:34:00.131Z,11.35
2023-03-18T23:36:28.835Z,9.77
2023-03-18T23:38:57.396Z,8.77
2023-03-18T23:41:25.744Z,11.88
2023-03-18T23:43:54.338Z,7.22
2023-03-18T23:46:22.659Z,11.15
2023-03-18T23:48:51.418Z,11.82
2023-03-18T23:51:19.658Z,11.98
2023-03-18T23:53:48.275Z,10.95
2023-03-18T23:56:17.711Z,8.10
2023-03-18T23:58:46.715Z,14.02
